createdAt,value
2022-11-19T00:00:16.274Z,101006.13
2022-11-19T00:03:22.474Z,101005.75
2022-11-19T00:06:28.588Z,100997.38
2022-11-19T00:09:32.532Z,101001.88
2022-11-19T00:12:57.521Z,101004.00
2022-11-19T00:16:04.742Z,100997.63
2022-11-19T00:19:09.174Z,101010.94
2022-11-19T00:22:13.235Z,101005.91
2022-11-19T00:28:39.495Z,101002.75
2022-11-19T00:31:42.137Z,101010.09
2022-11-19T00:34:46.079Z,101011.31
2022-11-19T00:37:50.105Z,101007.28
2022-11-19T00:40:54.053Z,101014.16
2022-11-19T00:43:58.027Z,101013.47
2022-11-19T00:47:00.685Z,101018.81
2022-11-19T00:50:03.402Z,101024.44
2022-11-19T00:53:07.422Z,101043.59
2022-11-19T00:56:13.213Z,101034.56
2022-11-19T00:59:17.835Z,101033.44
2022-11-19T01:02:20.633Z,101034.63
2022-11-19T01:05:24.626Z,101032.63
2022-11-19T01:08:28.814Z,101037.78
2022-11-19T01:11:35.663Z,101042.97
2022-11-19T01:14:38.345Z,101033.63
2022-11-19T01:17:42.295Z,101041.50
2022-11-19T01:20:46.888Z,101046.75
2022-11-19T01:23:51.620Z,101038.63
2022-11-19T01:26:55.572Z,101040.84
2022-11-19T01:29:59.554Z,101029.91
2022-11-19T01:33:02.261Z,101044.53
2022-11-19T01:39:34.160Z,101039.19
2022-11-19T01:42:55.039Z,101052.78
2022-11-19T01:45:57.734Z,101051.25
2022-11-19T01:49:05.411Z,101051.56
2022-11-19T01:52:09.382Z,101054.00
2022-11-19T01:55:15.385Z,101054.38
2022-11-19T01:58:22.154Z,101056.31
2022-11-19T02:01:26.683Z,101062.50
2022-11-19T02:04:30.558Z,101065.88
2022-11-19T02:07:36.599Z,101066.88
2022-11-19T02:10:55.509Z,101066.88
2022-11-19T02:14:08.383Z,101071.06
2022-11-19T02:17:20.825Z,101066.88
2022-11-19T02:20:45.316Z,101059.38
2022-11-19T02:24:17.094Z,101061.59
2022-11-19T02:27:55.370Z,101060.19
2022-11-19T02:31:09.036Z,101060.50
2022-11-19T02:34:16.654Z,101061.03
2022-11-19T02:37:28.666Z,101054.69
2022-11-19T02:40:37.377Z,101055.91
2022-11-19T02:43:44.127Z,101052.09
2022-11-19T02:46:50.576Z,101057.00
2022-11-19T02:50:00.746Z,101061.19
2022-11-19T02:53:04.492Z,101054.00
2022-11-19T02:56:18.312Z,101054.84
2022-11-19T02:59:47.428Z,101056.22
2022-11-19T03:03:17.982Z,101049.59
2022-11-19T03:06:25.161Z,101042.22
2022-11-19T03:09:28.723Z,101052.38
2022-11-19T03:12:46.981Z,101050.13
2022-11-19T03:16:10.620Z,101048.97
2022-11-19T03:19:28.733Z,101059.06
2022-11-19T03:22:36.462Z,101056.00
2022-11-19T03:25:44.650Z,101062.03
2022-11-19T03:28:49.869Z,101052.31
2022-11-19T03:31:57.632Z,101058.38
2022-11-19T03:35:06.649Z,101065.56
2022-11-19T03:38:16.168Z,101068.25
2022-11-19T03:41:21.276Z,101072.59
2022-11-19T03:44:29.551Z,101075.75
2022-11-19T03:47:37.888Z,101075.91
2022-11-19T03:50:49.573Z,101082.63
2022-11-19T03:53:53.618Z,101089.66
2022-11-19T03:56:59.052Z,101077.78
2022-11-19T04:00:03.011Z,101087.97
2022-11-19T04:03:05.821Z,101085.53
2022-11-19T04:06:12.592Z,101077.50
2022-11-19T04:09:16.714Z,101079.63
2022-11-19T04:12:21.365Z,101082.31
2022-11-19T04:15:25.407Z,101076.28
2022-11-19T04:18:29.340Z,101077.78
2022-11-19T04:21:34.669Z,101082.47
2022-11-19T04:24:38.616Z,101083.94
2022-11-19T04:27:41.288Z,101089.72
2022-11-19T04:30:45.610Z,101090.47
2022-11-19T04:33:48.254Z,101079.47
2022-11-19T04:36:53.562Z,101088.88
2022-11-19T04:39:57.594Z,101083.22
2022-11-19T04:43:01.050Z,101080.88
2022-11-19T04:46:05.096Z,101078.97
2022-11-19T04:49:07.988Z,101076.53
2022-11-19T04:52:12.130Z,101072.75
2022-11-19T04:55:16.242Z,101067.91
2022-11-19T04:58:23.032Z,101067.50
2022-11-19T05:01:27.017Z,101070.75
2022-11-19T05:04:29.810Z,101060.72
2022-11-19T05:07:33.898Z,101057.06
2022-11-19T05:10:37.878Z,101065.09
2022-11-19T05:13:40.551Z,101058.28
2022-11-19T05:16:44.517Z,101067.00
2022-11-19T05:19:48.424Z,101055.16
2022-11-19T05:22:52.425Z,101048.41
2022-11-19T05:25:56.347Z,101055.16
2022-11-19T05:28:59.022Z,101051.19
2022-11-19T05:32:01.751Z,101054.22
2022-11-19T05:35:05.852Z,101054.09
2022-11-19T05:38:09.904Z,101048.97
2022-11-19T05:41:12.574Z,101037.78
2022-11-19T05:44:15.239Z,101041.00
2022-11-19T05:47:18.570Z,101041.84
2022-11-19T05:50:22.485Z,101036.72
2022-11-19T05:53:27.285Z,101043.75
2022-11-19T05:56:31.207Z,101042.31
2022-11-19T05:59:33.961Z,101049.34
2022-11-19T06:02:38.034Z,101053.72
2022-11-19T06:05:42.051Z,101051.47
2022-11-19T06:08:46.103Z,101048.34
2022-11-19T06:15:12.687Z,101054.03
2022-11-19T06:18:16.824Z,101060.75
2022-11-19T06:21:20.161Z,101053.38
2022-11-19T06:24:25.475Z,101053.22
2022-11-19T06:27:29.411Z,101054.47
2022-11-19T06:30:32.064Z,101049.47
2022-11-19T06:33:36.011Z,101050.63
2022-11-19T06:36:43.772Z,101043.94
2022-11-19T06:39:51.678Z,101039.66
2022-11-19T06:42:54.351Z,101034.16
2022-11-19T06:45:58.301Z,101030.47
2022-11-19T06:49:01.010Z,101038.00
2022-11-19T06:52:04.994Z,101051.06
2022-11-19T06:55:09.920Z,101040.34
2022-11-19T06:58:14.616Z,101040.88
2022-11-19T07:01:17.369Z,101053.66
2022-11-19T07:04:21.424Z,101046.13
2022-11-19T07:07:27.305Z,101044.97
2022-11-19T07:10:31.673Z,101057.06
2022-11-19T07:13:48.271Z,101058.91
2022-11-19T07:16:52.267Z,101064.81
2022-11-19T07:19:54.981Z,101063.16
2022-11-19T07:22:59.382Z,101054.69
2022-11-19T07:26:03.740Z,101051.06
2022-11-19T07:29:09.356Z,101051.94
2022-11-19T07:32:12.095Z,101046.78
2022-11-19T07:35:16.049Z,101034.59
2022-11-19T07:38:18.756Z,101050.09
2022-11-19T07:41:41.786Z,101048.34
2022-11-19T07:44:46.618Z,101053.75
2022-11-19T07:47:53.003Z,101053.06
2022-11-19T07:50:56.674Z,101048.72
2022-11-19T07:54:00.727Z,101041.69
2022-11-19T07:57:04.930Z,101049.94
2022-11-19T08:00:09.303Z,101039.88
2022-11-19T08:03:13.499Z,101039.69
2022-11-19T08:06:18.260Z,101032.63
2022-11-19T08:09:22.462Z,101029.09
2022-11-19T08:12:26.578Z,101035.16
2022-11-19T08:15:30.549Z,101022.69
2022-11-19T08:18:32.366Z,101020.69
2022-11-19T08:21:36.541Z,101019.81
2022-11-19T08:24:39.314Z,101013.44
2022-11-19T08:27:44.636Z,101008.19
2022-11-19T08:30:47.391Z,101006.31
2022-11-19T08:33:50.107Z,101013.06
2022-11-19T08:36:52.815Z,101007.63
2022-11-19T08:39:56.724Z,101001.03
2022-11-19T08:42:59.765Z,101008.91
2022-11-19T08:46:02.464Z,101001.47
2022-11-19T08:49:05.223Z,100999.25
2022-11-19T08:52:09.284Z,101007.00
2022-11-19T09:01:58.439Z,101007.00
2022-11-19T09:05:01.156Z,101004.00
2022-11-19T09:11:25.433Z,101013.31
2022-11-19T09:14:29.633Z,101010.97
2022-11-19T09:17:33.769Z,101018.84
2022-11-19T09:20:36.820Z,101028.38
2022-11-19T09:23:41.465Z,101028.22
2022-11-19T09:26:50.261Z,101025.44
2022-11-19T09:29:56.622Z,101020.84
2022-11-19T09:33:00.277Z,101019.28
2022-11-19T09:36:03.172Z,101017.56
2022-11-19T09:39:05.859Z,101003.13
2022-11-19T09:42:33.562Z,100998.38
2022-11-19T09:45:54.503Z,100999.94
2022-11-19T09:49:05.154Z,100999.44
2022-11-19T09:52:14.624Z,100990.81
2022-11-19T09:55:21.775Z,100990.19
2022-11-19T09:58:30.352Z,100987.03
2022-11-19T10:01:36.705Z,100970.94
2022-11-19T10:04:40.687Z,100978.38
2022-11-19T10:07:51.124Z,100972.97
2022-11-19T10:11:08.893Z,100973.06
2022-11-19T10:18:08.773Z,100962.22
2022-11-19T10:21:19.955Z,100957.75
2022-11-19T10:24:29.587Z,100958.59
2022-11-19T10:27:43.898Z,100964.44
2022-11-19T10:30:50.775Z,100960.69
2022-11-19T10:34:02.086Z,100964.69
2022-11-19T10:37:09.574Z,100952.38
2022-11-19T10:40:18.327Z,100946.88
2022-11-19T10:43:26.380Z,100932.34
2022-11-19T10:46:29.820Z,100936.59
2022-11-19T10:49:39.020Z,100931.41
2022-11-19T10:52:45.121Z,100931.56
2022-11-19T10:55:54.500Z,100911.69
2022-11-19T10:59:02.287Z,100914.06
2022-11-19T11:02:27.603Z,100902.78
2022-11-19T11:05:34.339Z,100912.03
2022-11-19T11:08:49.460Z,100911.38
2022-11-19T11:12:10.829Z,100910.75
2022-11-19T11:15:18.209Z,100897.75
2022-11-19T11:18:28.574Z,100898.41
2022-11-19T11:21:36.762Z,100882.28
2022-11-19T11:24:41.807Z,100885.34
2022-11-19T11:27:44.485Z,100861.66
2022-11-19T11:30:54.685Z,100872.47
2022-11-19T11:33:59.992Z,100865.53
2022-11-19T11:37:06.914Z,100867.25
2022-11-19T11:44:02.518Z,100865.56
2022-11-19T11:47:13.146Z,100862.44
2022-11-19T11:50:21.778Z,100854.47
2022-11-19T11:53:32.962Z,100863.41
2022-11-19T11:56:36.893Z,100866.56
2022-11-19T11:59:40.879Z,100863.91
2022-11-19T12:03:01.228Z,100860.00
2022-11-19T12:06:13.003Z,100857.91
2022-11-19T12:09:24.225Z,100860.19
2022-11-19T12:12:35.832Z,100854.38
2022-11-19T12:15:52.334Z,100853.50
2022-11-19T12:19:10.790Z,100860.41
2022-11-19T12:22:20.866Z,100861.22
2022-11-19T12:25:32.067Z,100858.75
2022-11-19T12:32:34.343Z,100861.03
2022-11-19T12:35:45.631Z,100858.91
2022-11-19T12:38:59.565Z,100866.66
2022-11-19T12:42:24.522Z,100867.91
2022-11-19T12:45:36.852Z,100863.69
2022-11-19T12:53:04.888Z,100867.78
2022-11-19T12:56:22.134Z,100863.47
2022-11-19T12:59:39.201Z,100861.56
2022-11-19T13:02:51.417Z,100860.47
2022-11-19T13:05:58.584Z,100855.63
2022-11-19T13:09:06.379Z,100860.84
2022-11-19T13:12:14.522Z,100857.97
2022-11-19T13:15:23.887Z,100854.38
2022-11-19T13:18:31.792Z,100851.03
2022-11-19T13:21:45.687Z,100853.94
2022-11-19T13:24:52.200Z,100848.31
2022-11-19T13:27:57.542Z,100843.91
2022-11-19T13:31:06.676Z,100842.19
2022-11-19T13:34:17.936Z,100849.69
2022-11-19T13:37:29.705Z,100840.78
2022-11-19T13:40:37.864Z,100842.03
2022-11-19T13:44:13.076Z,100837.19
2022-11-19T13:47:24.327Z,100830.72
2022-11-19T13:50:33.402Z,100836.75
2022-11-19T13:53:41.979Z,100835.25
2022-11-19T13:56:48.442Z,100838.72
2022-11-19T13:59:56.854Z,100837.41
2022-11-19T14:03:21.644Z,100832.47
2022-11-19T14:06:47.046Z,100833.53
2022-11-19T14:10:01.656Z,100831.81
2022-11-19T14:13:21.574Z,100837.47
2022-11-19T14:16:51.944Z,100846.13
2022-11-19T14:20:18.323Z,100848.16
2022-11-19T14:24:01.033Z,100840.00
2022-11-19T14:27:20.941Z,100843.50
2022-11-19T14:31:03.511Z,100839.84
2022-11-19T14:34:25.333Z,100841.69
2022-11-19T14:37:35.568Z,100840.44
2022-11-19T14:40:43.663Z,100834.66
2022-11-19T14:44:10.091Z,100832.63
2022-11-19T14:47:37.263Z,100830.75
2022-11-19T14:50:40.010Z,100827.88
2022-11-19T14:53:53.679Z,100821.38
2022-11-19T14:57:06.347Z,100819.94
2022-11-19T15:00:30.791Z,100827.44
2022-11-19T15:03:35.313Z,100827.34
2022-11-19T15:06:40.161Z,100825.28
2022-11-19T15:10:09.750Z,100821.75
2022-11-19T15:13:29.198Z,100817.38
2022-11-19T15:16:34.872Z,100822.09
2022-11-19T15:19:48.872Z,100815.28
2022-11-19T15:23:03.438Z,100825.44
2022-11-19T15:26:16.921Z,100818.84
2022-11-19T15:29:24.841Z,100827.50
2022-11-19T15:32:42.838Z,100812.75
2022-11-19T15:36:17.140Z,100821.56
2022-11-19T15:39:27.190Z,100818.41
2022-11-19T15:42:43.936Z,100819.41
2022-11-19T15:45:52.165Z,100818.59
2022-11-19T15:49:00.736Z,100811.41
2022-11-19T15:52:18.267Z,100815.78
2022-11-19T15:58:50.004Z,100814.44
2022-11-19T16:02:02.163Z,100803.19
2022-11-19T16:05:07.067Z,100805.06
2022-11-19T16:08:14.017Z,100807.69
2022-11-19T16:11:36.608Z,100798.66
2022-11-19T16:15:01.855Z,100803.44
2022-11-19T16:18:06.005Z,100798.34
2022-11-19T16:21:08.820Z,100796.81
2022-11-19T16:27:57.138Z,100799.19
2022-11-19T16:31:04.605Z,100802.47
2022-11-19T16:34:14.455Z,100801.00
2022-11-19T16:37:20.303Z,100792.06
2022-11-19T16:40:24.565Z,100795.72
2022-11-19T16:43:27.634Z,100794.69
2022-11-19T16:46:32.810Z,100791.88
2022-11-19T16:49:48.972Z,100789.84
2022-11-19T16:52:52.197Z,100792.44
2022-11-19T16:56:02.122Z,100792.09
2022-11-19T16:59:07.898Z,100791.44
2022-11-19T17:02:17.002Z,100794.81
2022-11-19T17:08:56.165Z,100804.31
2022-11-19T17:12:17.721Z,100791.91
2022-11-19T17:15:40.464Z,100791.47
2022-11-19T17:18:46.816Z,100794.34
2022-11-19T17:21:54.327Z,100786.88
2022-11-19T17:24:58.412Z,100794.78
2022-11-19T17:28:03.638Z,100797.88
2022-11-19T17:31:15.829Z,100795.44
2022-11-19T17:34:30.489Z,100796.06
2022-11-19T17:37:33.194Z,100797.50
2022-11-19T17:40:37.297Z,100794.78
2022-11-19T17:43:59.393Z,100796.38
2022-11-19T17:47:02.521Z,100797.28
2022-11-19T17:50:09.042Z,100800.00
2022-11-19T17:53:11.729Z,100797.38
2022-11-19T18:03:03.571Z,100807.25
2022-11-19T18:06:10.364Z,100808.09
2022-11-19T18:09:13.127Z,100800.00
2022-11-19T18:12:18.927Z,100803.97
2022-11-19T18:15:22.235Z,100801.84
2022-11-19T18:18:26.254Z,100798.75
2022-11-19T18:21:30.340Z,100798.56
2022-11-19T18:24:34.426Z,100801.66
2022-11-19T18:27:37.113Z,100800.63
2022-11-19T18:30:41.123Z,100805.84
2022-11-19T18:33:46.549Z,100798.66
2022-11-19T18:40:16.135Z,100808.09
2022-11-19T18:43:39.810Z,100799.56
2022-11-19T18:46:43.117Z,100804.56
2022-11-19T18:49:45.827Z,100806.03
2022-11-19T18:52:51.148Z,100799.25
2022-11-19T18:55:53.835Z,100809.22
2022-11-19T18:59:01.796Z,100810.09
2022-11-19T19:02:09.620Z,100803.63
2022-11-19T19:05:13.656Z,100806.53
2022-11-19T19:08:17.695Z,100804.84
2022-11-19T19:11:35.475Z,100795.91
2022-11-19T19:14:38.463Z,100799.69
2022-11-19T19:17:42.582Z,100811.63
2022-11-19T19:20:45.257Z,100791.47
2022-11-19T19:23:51.375Z,100802.53
2022-11-19T19:26:54.101Z,100810.69
2022-11-19T19:29:58.233Z,100808.44
2022-11-19T19:33:00.946Z,100806.00
2022-11-19T19:36:05.327Z,100806.66
2022-11-19T19:39:10.744Z,100814.44
2022-11-19T19:42:13.486Z,100809.03
2022-11-19T19:45:16.577Z,100798.44
2022-11-19T19:48:20.589Z,100810.47
2022-11-19T19:51:25.673Z,100811.25
2022-11-19T19:54:31.094Z,100813.59
2022-11-19T19:57:33.888Z,100807.59
2022-11-19T20:00:37.854Z,100822.78
2022-11-19T20:03:40.968Z,100817.38
2022-11-19T20:06:47.504Z,100826.94
2022-11-19T20:09:52.808Z,100832.56
2022-11-19T20:13:14.042Z,100830.88
2022-11-19T20:16:20.090Z,100828.56
2022-11-19T20:19:24.592Z,100833.78
2022-11-19T20:22:27.598Z,100827.47
2022-11-19T20:28:56.109Z,100832.47
2022-11-19T20:31:59.085Z,100839.50
2022-11-19T20:35:01.868Z,100833.47
2022-11-19T20:38:05.792Z,100844.47
2022-11-19T20:41:28.907Z,100847.03
2022-11-19T20:44:32.861Z,100840.16
2022-11-19T20:47:35.585Z,100847.50
2022-11-19T20:50:39.621Z,100848.53
2022-11-19T20:53:42.498Z,100837.00
2022-11-19T21:00:10.135Z,100847.75
2022-11-19T21:03:14.138Z,100843.06
2022-11-19T21:06:18.093Z,100841.28
2022-11-19T21:09:21.355Z,100840.81
2022-11-19T21:12:25.801Z,100848.16
2022-11-19T21:18:51.861Z,100845.72
2022-11-19T21:21:54.543Z,100847.63
2022-11-19T21:24:58.510Z,100847.06
2022-11-19T21:31:39.446Z,100843.66
2022-11-19T21:34:42.774Z,100838.06
2022-11-19T21:37:46.761Z,100839.34
2022-11-19T21:40:52.778Z,100823.66
2022-11-19T21:43:58.107Z,100831.63
2022-11-19T21:47:02.090Z,100831.25
2022-11-19T21:50:06.504Z,100831.81
2022-11-19T21:53:09.850Z,100820.75
2022-11-19T21:56:13.899Z,100824.50
2022-11-19T21:59:19.697Z,100816.81
2022-11-19T22:02:22.719Z,100825.19
2022-11-19T22:08:48.805Z,100815.56
2022-11-19T22:11:51.456Z,100809.31
2022-11-19T22:14:55.516Z,100810.78
2022-11-19T22:17:59.460Z,100805.81
2022-11-19T22:21:04.451Z,100801.97
2022-11-19T22:24:07.717Z,100805.94
2022-11-19T22:27:11.626Z,100799.66
2022-11-19T22:30:16.176Z,100806.41
2022-11-19T22:33:20.123Z,100794.75
2022-11-19T22:36:24.056Z,100801.44
2022-11-19T22:39:28.053Z,100802.69
2022-11-19T22:42:30.709Z,100801.38
2022-11-19T22:45:36.038Z,100792.91
2022-11-19T22:48:39.065Z,100794.56
2022-11-19T22:51:43.065Z,100787.63
2022-11-19T22:54:45.812Z,100786.97
2022-11-19T22:57:49.701Z,100787.22
2022-11-19T23:00:55.110Z,100789.91
2022-11-19T23:03:59.892Z,100782.13
2022-11-19T23:10:24.267Z,100790.59
2022-11-19T23:13:33.002Z,100785.63
2022-11-19T23:16:38.974Z,100781.78
2022-11-19T23:19:41.823Z,100787.75
2022-11-19T23:22:45.766Z,100787.38
2022-11-19T23:25:48.458Z,100800.47
2022-11-19T23:28:52.965Z,100788.44
2022-11-19T23:31:56.950Z,100781.91
2022-11-19T23:35:00.880Z,100781.53
2022-11-19T23:38:03.574Z,100776.94
2022-11-19T23:41:09.413Z,100783.03
2022-11-19T23:44:12.093Z,100784.06
2022-11-19T23:47:17.422Z,100783.84
2022-11-19T23:50:20.304Z,100777.00
2022-11-19T23:53:24.275Z,100783.31
2022-11-19T23:56:30.551Z,100785.94
2022-11-19T23:59:33.321Z,100782.88
